Time;durP1;ratioP1;P1;durP2;ratioP2;P2;SDS_P1;SDS_P2;PMS_P1;PMS_P2;Temp;Humidity;BMP_temperature;BMP_pressure;BME280_temperature;BME280_humidity;BME280_pressure;Samples;Min_cycle;Max_cycle;Signal;HPM_P1;HPM_P2
2022/08/08 00:01:57;;;;;;;;;;;18.80;79.00;;;;;;4966762;28;19926;-89
2022/08/08 00:04:54;;;;;;;;;;;18.70;77.40;;;;;;4983831;28;19940;-92
2022/08/08 00:07:27;;;;;;;;;;;18.70;77.60;;;;;;4981762;28;19932;-89
2022/08/08 00:10:08;;;;;;;;;;;18.60;77.90;;;;;;4951440;28;20424;-90
2022/08/08 00:12:43;;;;;;;;;;;18.60;77.90;;;;;;4958636;29;19931;-90
2022/08/08 00:15:26;;;;;;;;;;;18.60;78.70;;;;;;4937203;28;19926;-90
2022/08/08 00:18:14;;;;;;;;;;;18.60;78.00;;;;;;4949491;28;20373;-90
2022/08/08 00:20:51;;;;;;;;;;;18.60;78.20;;;;;;4961915;28;20408;-91
2022/08/08 00:23:25;;;;;;;;;;;18.60;78.00;;;;;;4961574;28;19941;-90
2022/08/08 00:26:16;;;;;;;;;;;18.60;78.50;;;;;;4976668;28;19926;-90
2022/08/08 00:28:50;;;;;;;;;;;18.60;78.00;;;;;;4976956;28;19926;-90
2022/08/08 00:31:23;;;;;;;;;;;18.60;78.30;;;;;;4959900;28;19925;-91
2022/08/08 00:37:21;;;;;;;;;;;18.50;79.00;;;;;;4960318;28;19926;-91
2022/08/08 00:40:28;;;;;;;;;;;18.50;79.10;;;;;;4976602;28;20221;-90
2022/08/08 00:43:34;;;;;;;;;;;18.40;78.90;;;;;;4982950;28;19926;-91
2022/08/08 00:46:20;;;;;;;;;;;18.30;79.80;;;;;;4944085;29;19927;-91
2022/08/08 00:49:06;;;;;;;;;;;18.30;79.40;;;;;;4956367;29;20393;-91
2022/08/08 00:51:56;;;;;;;;;;;18.20;79.40;;;;;;4940824;29;19926;-90
2022/08/08 00:54:24;;;;;;;;;;;18.20;80.10;;;;;;4940933;29;19926;-91
2022/08/08 00:56:56;;;;;;;;;;;17.70;79.80;;;;;;4957292;28;19933;-90
2022/08/08 00:59:24;;;;;;;;;;;18.10;80.50;;;;;;4964505;28;20262;-89
2022/08/08 01:02:33;;;;;;;;;;;18.10;81.00;;;;;;4964773;28;19927;-90
2022/08/08 01:05:37;;;;;;;;;;;18.00;80.60;;;;;;4959888;28;20348;-90
2022/08/08 01:08:41;;;;;;;;;;;17.70;81.40;;;;;;4963877;28;19926;-92
2022/08/08 01:11:44;;;;;;;;;;;17.60;82.50;;;;;;4974996;28;19997;-90
2022/08/08 01:14:39;;;;;;;;;;;17.50;82.30;;;;;;4980128;28;19926;-91
2022/08/08 01:17:29;;;;;;;;;;;17.50;82.20;;;;;;4949894;28;19931;-92
2022/08/08 01:20:17;;;;;;;;;;;17.70;82.40;;;;;;4942698;29;19930;-91
2022/08/08 01:23:08;;;;;;;;;;;17.50;82.70;;;;;;4940109;29;20014;-91
2022/08/08 01:26:03;;;;;;;;;;;17.50;82.10;;;;;;4946391;28;19930;-91
2022/08/08 01:28:58;;;;;;;;;;;17.50;82.50;;;;;;4976066;28;19926;-91
2022/08/08 01:31:46;;;;;;;;;;;17.30;83.10;;;;;;4944425;28;19926;-90
2022/08/08 01:34:59;;;;;;;;;;;17.30;83.20;;;;;;4961035;28;19930;-92
2022/08/08 01:37:33;;;;;;;;;;;17.30;83.10;;;;;;4960523;28;19926;-91
2022/08/08 01:40:35;;;;;;;;;;;17.20;83.00;;;;;;4958759;28;19941;-89
2022/08/08 01:43:23;;;;;;;;;;;17.20;83.60;;;;;;4966387;28;19926;-90
2022/08/08 01:46:12;;;;;;;;;;;17.20;85.00;;;;;;4947386;28;19926;-90
2022/08/08 01:48:55;;;;;;;;;;;17.10;83.90;;;;;;4963891;28;19977;-90
2022/08/08 01:51:37;;;;;;;;;;;17.00;83.80;;;;;;4950261;28;19926;-90
2022/08/08 01:54:48;;;;;;;;;;;17.00;84.50;;;;;;4964389;28;19933;-90
2022/08/08 01:57:44;;;;;;;;;;;17.00;84.10;;;;;;4940259;29;19941;-90
2022/08/08 02:00:41;;;;;;;;;;;17.00;85.20;;;;;;4926166;29;19938;-89
2022/08/08 02:03:15;;;;;;;;;;;16.90;84.20;;;;;;4939481;29;19926;-90
2022/08/08 02:06:21;;;;;;;;;;;16.90;84.90;;;;;;4926042;29;19927;-90
2022/08/08 02:09:16;;;;;;;;;;;17.10;84.70;;;;;;4950448;28;19981;-90
2022/08/08 02:11:47;;;;;;;;;;;16.80;85.20;;;;;;4957193;28;19934;-90
2022/08/08 02:14:33;;;;;;;;;;;16.90;84.70;;;;;;4939782;28;19934;-90
2022/08/08 02:17:31;;;;;;;;;;;16.90;85.10;;;;;;4939191;29;19926;-90
2022/08/08 02:20:41;;;;;;;;;;;16.80;84.90;;;;;;4924602;29;19934;-89
2022/08/08 02:23:35;;;;;;;;;;;16.80;85.20;;;;;;4935067;29;19926;-90
2022/08/08 02:26:10;;;;;;;;;;;16.70;86.10;;;;;;4934354;28;19930;-89
2022/08/08 02:28:53;;;;;;;;;;;16.60;85.70;;;;;;4961645;28;19930;-90
2022/08/08 02:31:38;;;;;;;;;;;16.60;85.50;;;;;;4961519;28;20295;-90
2022/08/08 02:34:35;;;;;;;;;;;16.60;85.50;;;;;;4948579;28;20386;-89
2022/08/08 02:37:22;;;;;;;;;;;16.60;85.50;;;;;;4961930;28;20297;-90
2022/08/08 02:40:15;;;;;;;;;;;16.60;85.70;;;;;;4977725;28;19933;-90
2022/08/08 02:42:46;;;;;;;;;;;16.60;85.50;;;;;;4956518;29;20232;-90
2022/08/08 02:45:53;;;;;;;;;;;16.70;85.80;;;;;;4954352;28;19933;-90
2022/08/08 02:48:46;;;;;;;;;;;17.00;85.90;;;;;;4966752;28;20413;-90
2022/08/08 02:51:30;;;;;;;;;;;16.60;85.80;;;;;;4954392;29;19927;-89
2022/08/08 02:54:30;;;;;;;;;;;16.20;86.10;;;;;;4950162;29;19930;-90
2022/08/08 02:57:34;;;;;;;;;;;16.60;86.10;;;;;;4932104;29;19934;-90
2022/08/08 03:00:31;;;;;;;;;;;16.80;86.90;;;;;;4924552;29;19927;-91
2022/08/08 03:03:35;;;;;;;;;;;16.50;86.80;;;;;;4943140;29;19927;-91
2022/08/08 03:06:33;;;;;;;;;;;16.60;86.80;;;;;;4942292;29;19938;-90
2022/08/08 03:09:24;;;;;;;;;;;16.40;87.40;;;;;;4928289;28;19925;-91
2022/08/08 03:12:21;;;;;;;;;;;16.30;87.20;;;;;;4964607;28;19926;-90
2022/08/08 03:15:10;;;;;;;;;;;16.20;88.30;;;;;;4955407;28;19926;-89
2022/08/08 03:18:06;;;;;;;;;;;16.10;88.70;;;;;;4964446;28;20377;-90
2022/08/08 03:20:48;;;;;;;;;;;15.90;88.00;;;;;;4946062;28;19933;-90
2022/08/08 03:23:31;;;;;;;;;;;16.00;88.40;;;;;;4961820;28;19934;-90
2022/08/08 03:26:30;;;;;;;;;;;16.00;88.70;;;;;;4958993;29;19926;-90
2022/08/08 03:29:11;;;;;;;;;;;16.00;88.50;;;;;;4944685;28;20297;-90
2022/08/08 03:34:37;;;;;;;;;;;16.00;89.80;;;;;;4960018;28;19926;-90
2022/08/08 03:37:15;;;;;;;;;;;15.90;89.70;;;;;;4960260;28;19930;-90
2022/08/08 03:40:05;;;;;;;;;;;16.00;89.70;;;;;;4956460;29;19926;-90
2022/08/08 03:42:37;;;;;;;;;;;16.40;89.70;;;;;;4944991;28;19933;-89
2022/08/08 03:45:17;;;;;;;;;;;15.80;89.70;;;;;;4952748;29;19937;-90
2022/08/08 03:48:09;;;;;;;;;;;15.80;89.20;;;;;;4945833;29;19926;-90
2022/08/08 03:50:58;;;;;;;;;;;15.90;88.80;;;;;;4945631;29;19937;-90
2022/08/08 03:53:25;;;;;;;;;;;15.90;89.00;;;;;;4925301;29;19926;-90
2022/08/08 03:56:08;;;;;;;;;;;15.90;89.00;;;;;;4945884;29;19931;-91
2022/08/08 03:58:57;;;;;;;;;;;16.10;90.30;;;;;;4929162;29;19927;-90
2022/08/08 04:01:36;;;;;;;;;;;16.10;89.40;;;;;;4926068;29;19926;-91
2022/08/08 04:04:25;;;;;;;;;;;15.90;89.60;;;;;;4929891;29;19945;-89
2022/08/08 04:06:58;;;;;;;;;;;15.80;90.10;;;;;;4931385;29;19932;-90
2022/08/08 04:09:35;;;;;;;;;;;15.70;90.10;;;;;;4974912;28;19926;-89
2022/08/08 04:12:23;;;;;;;;;;;15.60;90.40;;;;;;4968682;28;19937;-89
2022/08/08 04:14:53;;;;;;;;;;;15.50;90.40;;;;;;4958354;29;19926;-90
2022/08/08 04:17:22;;;;;;;;;;;15.40;90.80;;;;;;4944445;29;19926;-89
2022/08/08 04:20:10;;;;;;;;;;;15.60;90.80;;;;;;4965729;28;19941;-89
2022/08/08 04:22:39;;;;;;;;;;;15.40;91.00;;;;;;4966275;28;19926;-89
2022/08/08 04:25:08;;;;;;;;;;;15.30;90.90;;;;;;4972131;28;19926;-89
2022/08/08 04:27:42;;;;;;;;;;;15.30;91.20;;;;;;4959936;28;19930;-90
2022/08/08 04:30:31;;;;;;;;;;;15.30;90.90;;;;;;4978725;28;19926;-89
2022/08/08 04:33:12;;;;;;;;;;;15.00;91.90;;;;;;4961409;28;20310;-89
2022/08/08 04:35:42;;;;;;;;;;;15.30;91.90;;;;;;4943658;28;20390;-91
2022/08/08 04:38:20;;;;;;;;;;;15.20;91.80;;;;;;4971849;28;19926;-90
2022/08/08 04:40:52;;;;;;;;;;;15.20;91.20;;;;;;4979732;28;19926;-89
2022/08/08 04:43:23;;;;;;;;;;;15.20;91.50;;;;;;4963157;28;19944;-89
2022/08/08 04:46:13;;;;;;;;;;;15.20;91.40;;;;;;4986256;28;19930;-90
2022/08/08 04:48:42;;;;;;;;;;;15.20;91.60;;;;;;4984187;28;19932;-89
2022/08/08 04:51:10;;;;;;;;;;;15.10;91.90;;;;;;4948894;29;19938;-89
2022/08/08 04:53:50;;;;;;;;;;;15.40;91.40;;;;;;4959260;29;19952;-90
2022/08/08 04:56:39;;;;;;;;;;;15.20;91.60;;;;;;4976516;28;19930;-90
2022/08/08 04:59:09;;;;;;;;;;;15.20;91.30;;;;;;4944546;28;19926;-90
2022/08/08 05:01:38;;;;;;;;;;;15.60;91.90;;;;;;4959825;28;19930;-89
2022/08/08 05:04:18;;;;;;;;;;;15.20;92.10;;;;;;4960442;28;19926;-90
2022/08/08 05:06:47;;;;;;;;;;;15.20;92.50;;;;;;4959013;28;20373;-89
2022/08/08 05:09:20;;;;;;;;;;;15.30;91.80;;;;;;4969343;28;20432;-90
2022/08/08 05:11:50;;;;;;;;;;;15.20;91.80;;;;;;4963273;28;19945;-89
2022/08/08 05:14:26;;;;;;;;;;;15.20;91.80;;;;;;4956868;28;19927;-89
2022/08/08 05:17:03;;;;;;;;;;;15.30;92.00;;;;;;4975749;28;19964;-89
2022/08/08 05:19:37;;;;;;;;;;;14.00;91.60;;;;;;4945258;28;20293;-90
2022/08/08 05:22:36;;;;;;;;;;;15.40;92.00;;;;;;4958811;28;19927;-90
2022/08/08 05:25:05;;;;;;;;;;;15.40;92.10;;;;;;4958911;28;19926;-89
2022/08/08 05:27:33;;;;;;;;;;;15.50;91.80;;;;;;4955398;28;20035;-90
2022/08/08 05:30:12;;;;;;;;;;;15.40;91.90;;;;;;4940251;29;19930;-90
2022/08/08 05:32:46;;;;;;;;;;;15.60;91.90;;;;;;4940750;29;19942;-89
2022/08/08 05:35:20;;;;;;;;;;;15.60;91.90;;;;;;4925458;29;19946;-91
2022/08/08 05:37:56;;;;;;;;;;;15.70;91.80;;;;;;4929680;29;19945;-90
2022/08/08 05:40:35;;;;;;;;;;;15.80;92.00;;;;;;4969730;28;19937;-90
2022/08/08 05:43:10;;;;;;;;;;;15.80;91.80;;;;;;4969394;28;20342;-90
2022/08/08 05:46:06;;;;;;;;;;;14.90;91.40;;;;;;4962810;28;19927;-90
2022/08/08 05:48:42;;;;;;;;;;;16.00;91.60;;;;;;4958042;29;19926;-90
2022/08/08 05:51:16;;;;;;;;;;;16.10;91.40;;;;;;4942771;29;19931;-90
2022/08/08 05:53:48;;;;;;;;;;;16.20;91.50;;;;;;4942178;29;19938;-90
2022/08/08 05:56:40;;;;;;;;;;;16.30;91.40;;;;;;4957643;29;19933;-92
2022/08/08 05:59:26;;;;;;;;;;;16.40;91.20;;;;;;4932002;29;19930;-92
2022/08/08 06:05:18;;;;;;;;;;;16.70;90.90;;;;;;4948715;29;19931;-90
2022/08/08 06:08:06;;;;;;;;;;;17.00;91.00;;;;;;4950829;29;19949;-90
2022/08/08 06:10:39;;;;;;;;;;;16.90;91.20;;;;;;4950880;29;19941;-92
2022/08/08 06:13:09;;;;;;;;;;;17.00;91.30;;;;;;4961122;28;19933;-90
2022/08/08 06:15:45;;;;;;;;;;;17.10;91.50;;;;;;4968877;28;19926;-90
2022/08/08 06:18:30;;;;;;;;;;;17.10;91.60;;;;;;4951202;29;19950;-90
2022/08/08 06:20:59;;;;;;;;;;;17.20;91.50;;;;;;4949226;29;19937;-92
2022/08/08 06:23:49;;;;;;;;;;;17.30;91.50;;;;;;4937696;29;19927;-91
2022/08/08 06:26:36;;;;;;;;;;;17.40;91.60;;;;;;4966362;28;19926;-91
2022/08/08 06:29:24;;;;;;;;;;;17.50;91.60;;;;;;4935513;29;19937;-90
2022/08/08 06:32:14;;;;;;;;;;;17.50;91.60;;;;;;4964266;28;19934;-91
2022/08/08 06:34:52;;;;;;;;;;;19.70;92.40;;;;;;4964035;29;19953;-90
2022/08/08 06:37:48;;;;;;;;;;;17.60;92.10;;;;;;4948754;29;19934;-90
2022/08/08 06:40:28;;;;;;;;;;;17.70;92.00;;;;;;4979553;28;19926;-89
2022/08/08 06:43:05;;;;;;;;;;;17.80;92.20;;;;;;4973709;28;19926;-90
2022/08/08 06:45:50;;;;;;;;;;;17.80;92.00;;;;;;4957145;28;19926;-89
2022/08/08 06:48:20;;;;;;;;;;;17.90;92.80;;;;;;4965212;28;19933;-90
2022/08/08 06:50:54;;;;;;;;;;;17.90;92.40;;;;;;4967647;28;19941;-90
2022/08/08 06:53:24;;;;;;;;;;;18.00;92.60;;;;;;4966261;28;19937;-91
2022/08/08 06:56:08;;;;;;;;;;;18.10;92.60;;;;;;4944235;29;19930;-91
2022/08/08 06:58:35;;;;;;;;;;;18.20;92.30;;;;;;4959843;29;19926;-90
2022/08/08 07:01:10;;;;;;;;;;;18.30;92.50;;;;;;4926541;29;20060;-90
2022/08/08 07:04:09;;;;;;;;;;;18.40;92.20;;;;;;4968746;28;20101;-90
2022/08/08 07:07:00;;;;;;;;;;;18.50;92.20;;;;;;4939616;29;19927;-90
2022/08/08 07:09:47;;;;;;;;;;;18.60;92.40;;;;;;4925517;29;19934;-90
2022/08/08 07:12:42;;;;;;;;;;;18.70;92.40;;;;;;4946928;28;21712;-89
2022/08/08 07:15:27;;;;;;;;;;;18.50;92.00;;;;;;4948093;28;19949;-89
2022/08/08 07:18:19;;;;;;;;;;;18.80;92.00;;;;;;4946066;28;19933;-90
2022/08/08 07:21:08;;;;;;;;;;;18.90;91.90;;;;;;4958952;28;19926;-90
2022/08/08 07:24:00;;;;;;;;;;;19.00;91.60;;;;;;4961215;28;20353;-90
2022/08/08 07:26:45;;;;;;;;;;;19.00;91.70;;;;;;4950636;29;19938;-90
2022/08/08 07:29:17;;;;;;;;;;;19.10;91.80;;;;;;4940158;29;19942;-90
2022/08/08 07:32:05;;;;;;;;;;;19.20;91.70;;;;;;4943212;29;19926;-91
2022/08/08 07:34:34;;;;;;;;;;;19.30;91.50;;;;;;4940866;29;20303;-90
2022/08/08 07:37:14;;;;;;;;;;;19.40;91.50;;;;;;4947708;29;19927;-91
2022/08/08 07:39:43;;;;;;;;;;;19.50;91.40;;;;;;4954480;28;20464;-90
2022/08/08 07:42:31;;;;;;;;;;;19.50;91.30;;;;;;4979831;28;20002;-90
2022/08/08 07:45:04;;;;;;;;;;;19.60;91.10;;;;;;4975492;28;19933;-91
2022/08/08 07:47:34;;;;;;;;;;;19.70;91.20;;;;;;4971978;28;19936;-90
2022/08/08 07:50:07;;;;;;;;;;;19.80;91.00;;;;;;4985673;28;19937;-90
2022/08/08 07:52:40;;;;;;;;;;;19.90;91.00;;;;;;4973154;28;19933;-90
2022/08/08 07:55:17;;;;;;;;;;;20.00;91.00;;;;;;4964118;28;20369;-91
2022/08/08 07:58:04;;;;;;;;;;;20.20;90.70;;;;;;4956659;28;19933;-90
2022/08/08 08:00:52;;;;;;;;;;;20.20;90.50;;;;;;4975977;28;19937;-91
2022/08/08 08:03:23;;;;;;;;;;;20.30;90.70;;;;;;4958555;28;19926;-92
2022/08/08 08:05:58;;;;;;;;;;;20.40;90.20;;;;;;4957999;28;19926;-92
2022/08/08 08:08:38;;;;;;;;;;;20.50;90.10;;;;;;4961664;28;19926;-91
2022/08/08 08:11:19;;;;;;;;;;;20.60;89.90;;;;;;4979196;28;20274;-92
2022/08/08 08:13:52;;;;;;;;;;;20.60;89.70;;;;;;4963607;28;19933;-91
2022/08/08 08:16:44;;;;;;;;;;;20.70;89.20;;;;;;4938936;29;19938;-92
2022/08/08 08:19:21;;;;;;;;;;;20.80;89.00;;;;;;4973361;28;19930;-91
2022/08/08 08:21:50;;;;;;;;;;;20.90;88.80;;;;;;4958385;28;20206;-93
2022/08/08 08:24:38;;;;;;;;;;;21.00;88.80;;;;;;4944211;28;19926;-91
2022/08/08 08:27:10;;;;;;;;;;;21.10;87.90;;;;;;4973896;28;19930;-91
2022/08/08 08:29:41;;;;;;;;;;;21.20;87.90;;;;;;4960897;28;19949;-91
2022/08/08 08:32:11;;;;;;;;;;;21.30;87.50;;;;;;4976863;28;19926;-91
2022/08/08 08:34:58;;;;;;;;;;;21.40;87.00;;;;;;4968792;28;19926;-91
2022/08/08 08:37:30;;;;;;;;;;;21.40;86.80;;;;;;4957273;28;19933;-91
2022/08/08 08:39:59;;;;;;;;;;;21.60;87.20;;;;;;4989757;28;20329;-91
2022/08/08 08:42:35;;;;;;;;;;;21.70;86.40;;;;;;4964491;28;19936;-91
2022/08/08 08:45:12;;;;;;;;;;;21.70;86.30;;;;;;4975264;28;19933;-91
2022/08/08 08:47:52;;;;;;;;;;;21.80;86.40;;;;;;4960171;28;19938;-92
2022/08/08 08:50:24;;;;;;;;;;;21.90;85.90;;;;;;4957018;28;19926;-90
2022/08/08 08:53:02;;;;;;;;;;;21.90;85.20;;;;;;4941138;28;20413;-91
2022/08/08 08:55:55;;;;;;;;;;;22.00;84.30;;;;;;4988991;28;20293;-91
2022/08/08 08:58:49;;;;;;;;;;;22.10;84.50;;;;;;4984167;28;19926;-91
2022/08/08 09:01:29;;;;;;;;;;;22.10;84.20;;;;;;4991962;28;19933;-91
2022/08/08 09:04:00;;;;;;;;;;;22.20;84.20;;;;;;4960789;28;20293;-90
2022/08/08 09:06:36;;;;;;;;;;;22.30;84.00;;;;;;4977279;28;19929;-91
2022/08/08 09:09:16;;;;;;;;;;;22.40;83.50;;;;;;4977299;28;19940;-90
2022/08/08 09:12:10;;;;;;;;;;;22.50;83.40;;;;;;4959793;28;20404;-91
2022/08/08 09:14:43;;;;;;;;;;;22.60;82.80;;;;;;4955820;28;20420;-92
2022/08/08 09:17:17;;;;;;;;;;;22.70;81.30;;;;;;4958140;28;19941;-90
2022/08/08 09:20:05;;;;;;;;;;;22.80;81.90;;;;;;4955528;28;19933;-91
2022/08/08 09:22:57;;;;;;;;;;;22.90;82.00;;;;;;4942307;28;19941;-90
2022/08/08 09:25:26;;;;;;;;;;;23.00;81.40;;;;;;4955916;28;19933;-90
2022/08/08 09:28:15;;;;;;;;;;;23.10;80.50;;;;;;4955731;28;19926;-91
2022/08/08 09:31:05;;;;;;;;;;;23.20;80.30;;;;;;4972082;28;19926;-91
2022/08/08 09:33:43;;;;;;;;;;;23.20;79.30;;;;;;4957235;28;20571;-92
2022/08/08 09:36:32;;;;;;;;;;;23.30;80.00;;;;;;4969636;28;19926;-89
2022/08/08 09:39:04;;;;;;;;;;;23.40;79.40;;;;;;4970023;28;19925;-93
2022/08/08 09:42:03;;;;;;;;;;;23.40;78.30;;;;;;4961350;28;20357;-91
2022/08/08 09:44:55;;;;;;;;;;;23.50;79.60;;;;;;4987289;28;19926;-91
2022/08/08 09:47:35;;;;;;;;;;;23.70;78.60;;;;;;4958808;28;19937;-91
2022/08/08 09:50:25;;;;;;;;;;;23.70;79.10;;;;;;4972799;28;19930;-92
2022/08/08 09:52:55;;;;;;;;;;;23.80;78.20;;;;;;4957407;28;19927;-93
2022/08/08 09:55:33;;;;;;;;;;;24.00;77.90;;;;;;4958210;28;20247;-91
2022/08/08 09:58:20;;;;;;;;;;;24.20;77.50;;;;;;4955625;28;20266;-91
2022/08/08 10:01:05;;;;;;;;;;;24.20;76.10;;;;;;4940866;28;19930;-90
2022/08/08 10:03:44;;;;;;;;;;;24.30;75.70;;;;;;4940990;28;19941;-91
2022/08/08 10:06:22;;;;;;;;;;;24.40;74.00;;;;;;4941352;28;19930;-91
2022/08/08 10:08:56;;;;;;;;;;;24.50;75.00;;;;;;4933921;29;19931;-91
2022/08/08 10:11:23;;;;;;;;;;;24.60;74.80;;;;;;4952060;29;19926;-91
2022/08/08 10:14:11;;;;;;;;;;;24.60;74.20;;;;;;4954678;28;19927;-90
2022/08/08 10:17:01;;;;;;;;;;;24.70;74.10;;;;;;4974454;28;20487;-92
2022/08/08 10:19:52;;;;;;;;;;;24.80;74.20;;;;;;4964921;28;19933;-91
2022/08/08 10:22:25;;;;;;;;;;;24.90;72.50;;;;;;4971173;28;19927;-91
2022/08/08 10:25:02;;;;;;;;;;;25.00;72.10;;;;;;4955366;28;20425;-91
2022/08/08 10:27:38;;;;;;;;;;;25.00;71.60;;;;;;4954221;28;20015;-91
2022/08/08 10:30:08;;;;;;;;;;;25.10;73.10;;;;;;4941555;29;19926;-92
2022/08/08 10:32:57;;;;;;;;;;;25.30;73.30;;;;;;4945162;28;19937;-91
2022/08/08 10:35:28;;;;;;;;;;;25.40;72.00;;;;;;4949116;28;19926;-91
2022/08/08 10:38:18;;;;;;;;;;;25.50;72.20;;;;;;4981458;28;20381;-92
2022/08/08 10:40:50;;;;;;;;;;;25.60;72.50;;;;;;4961294;28;19937;-91
2022/08/08 10:43:26;;;;;;;;;;;25.60;72.90;;;;;;4956390;28;19937;-92
2022/08/08 10:46:02;;;;;;;;;;;25.60;72.90;;;;;;4953054;28;20282;-92
2022/08/08 10:48:52;;;;;;;;;;;25.70;72.40;;;;;;4981631;28;19926;-94
2022/08/08 10:51:26;;;;;;;;;;;25.70;72.20;;;;;;4966756;28;19933;-93
2022/08/08 10:54:07;;;;;;;;;;;25.80;72.20;;;;;;4952877;28;19942;-93
2022/08/08 10:56:36;;;;;;;;;;;25.80;72.30;;;;;;4955483;29;19941;-93
2022/08/08 10:59:10;;;;;;;;;;;26.00;72.50;;;;;;4963456;29;20325;-93
2022/08/08 11:01:44;;;;;;;;;;;26.10;72.50;;;;;;4946933;29;19988;-92
2022/08/08 11:04:15;;;;;;;;;;;26.30;71.80;;;;;;4949730;29;19934;-91
2022/08/08 11:06:59;;;;;;;;;;;26.50;71.80;;;;;;4986310;28;19931;-92
2022/08/08 11:09:28;;;;;;;;;;;26.70;71.50;;;;;;4975329;28;19927;-91
2022/08/08 11:12:01;;;;;;;;;;;26.70;71.30;;;;;;4963724;29;19940;-91
2022/08/08 11:14:47;;;;;;;;;;;26.90;71.30;;;;;;4963850;28;19933;-93
2022/08/08 11:17:17;;;;;;;;;;;27.00;71.00;;;;;;4996142;28;19926;-93
2022/08/08 11:20:08;;;;;;;;;;;27.20;71.40;;;;;;4966731;28;19934;-94
2022/08/08 11:22:40;;;;;;;;;;;27.40;70.20;;;;;;4962933;28;20365;-93
2022/08/08 11:25:10;;;;;;;;;;;27.50;69.10;;;;;;4964120;28;20293;-93
2022/08/08 11:27:41;;;;;;;;;;;27.70;70.10;;;;;;4947053;29;19930;-92
2022/08/08 11:30:14;;;;;;;;;;;27.80;69.80;;;;;;4942568;29;19926;-93
2022/08/08 11:32:52;;;;;;;;;;;27.80;69.50;;;;;;4947931;29;19933;-92
2022/08/08 11:35:22;;;;;;;;;;;27.90;69.10;;;;;;4957569;29;19933;-93
2022/08/08 11:38:11;;;;;;;;;;;28.00;68.60;;;;;;4951533;28;19931;-91
2022/08/08 11:40:59;;;;;;;;;;;28.00;68.70;;;;;;4954309;29;20006;-91
2022/08/08 11:43:29;;;;;;;;;;;27.90;69.10;;;;;;4984644;28;19924;-92
2022/08/08 11:46:07;;;;;;;;;;;27.90;69.30;;;;;;4990806;28;19937;-95
2022/08/08 11:48:45;;;;;;;;;;;27.90;68.70;;;;;;4984912;28;19930;-94
2022/08/08 11:51:15;;;;;;;;;;;28.00;69.20;;;;;;4996780;28;19926;-93
2022/08/08 11:54:04;;;;;;;;;;;28.00;68.50;;;;;;4967022;28;19941;-94
2022/08/08 11:56:52;;;;;;;;;;;28.10;69.00;;;;;;4965587;28;20334;-94
2022/08/08 11:59:33;;;;;;;;;;;28.10;68.40;;;;;;4946984;28;19937;-93
2022/08/08 12:02:22;;;;;;;;;;;28.20;68.60;;;;;;4960792;28;20338;-91
2022/08/08 12:05:09;;;;;;;;;;;28.40;67.40;;;;;;4964007;28;19933;-94
2022/08/08 12:07:49;;;;;;;;;;;28.50;66.90;;;;;;4965558;28;19926;-92
2022/08/08 12:10:22;;;;;;;;;;;28.70;66.90;;;;;;4964043;28;20400;-93
2022/08/08 12:13:00;;;;;;;;;;;28.90;66.80;;;;;;4954172;29;19934;-91
2022/08/08 12:15:31;;;;;;;;;;;29.10;66.70;;;;;;4955737;28;19933;-94
2022/08/08 12:18:21;;;;;;;;;;;29.20;66.00;;;;;;4960203;28;19927;-93
2022/08/08 12:20:53;;;;;;;;;;;29.30;66.50;;;;;;4931570;29;19926;-92
2022/08/08 12:23:29;;;;;;;;;;;29.10;65.60;;;;;;4947441;28;19926;-92
2022/08/08 12:26:19;;;;;;;;;;;29.00;66.00;;;;;;4959119;28;19931;-91
2022/08/08 12:29:18;;;;;;;;;;;28.70;65.50;;;;;;4946113;29;20370;-91
2022/08/08 12:31:59;;;;;;;;;;;28.60;65.70;;;;;;4958845;29;19926;-91
2022/08/08 12:34:37;;;;;;;;;;;28.70;66.50;;;;;;4922691;29;19927;-91
2022/08/08 12:37:06;;;;;;;;;;;28.90;66.00;;;;;;4943713;29;19926;-92
2022/08/08 12:39:35;;;;;;;;;;;29.00;65.20;;;;;;4929981;29;19926;-91
2022/08/08 12:42:23;;;;;;;;;;;29.20;65.10;;;;;;4942063;29;19926;-91
2022/08/08 12:45:08;;;;;;;;;;;29.50;65.00;;;;;;4940379;29;19927;-92
2022/08/08 12:48:03;;;;;;;;;;;29.70;65.50;;;;;;4940008;29;19951;-93
2022/08/08 12:50:53;;;;;;;;;;;29.60;65.10;;;;;;4939398;29;19938;-92
2022/08/08 12:53:26;;;;;;;;;;;29.40;64.50;;;;;;4941857;29;19938;-92
2022/08/08 12:55:57;;;;;;;;;;;29.40;64.60;;;;;;4967433;28;19930;-91
2022/08/08 12:58:54;;;;;;;;;;;29.40;65.30;;;;;;4981374;28;20308;-91
2022/08/08 13:01:32;;;;;;;;;;;29.40;64.70;;;;;;4961232;28;20374;-92
2022/08/08 13:04:12;;;;;;;;;;;29.30;64.30;;;;;;4957650;28;20344;-91
2022/08/08 13:06:56;;;;;;;;;;;29.40;64.30;;;;;;4957895;28;19938;-91
2022/08/08 13:09:30;;;;;;;;;;;29.50;64.40;;;;;;4947740;29;19926;-91
2022/08/08 13:11:59;;;;;;;;;;;29.50;63.50;;;;;;4942104;29;19931;-92
2022/08/08 13:14:48;;;;;;;;;;;29.60;63.50;;;;;;4958808;28;20305;-91
2022/08/08 13:17:21;;;;;;;;;;;29.70;63.80;;;;;;4940845;28;19926;-91
2022/08/08 13:20:17;;;;;;;;;;;29.90;63.80;;;;;;4960467;28;20506;-91
2022/08/08 13:22:45;;;;;;;;;;;30.00;63.20;;;;;;4963993;28;20315;-92
2022/08/08 13:25:18;;;;;;;;;;;30.20;63.00;;;;;;4950998;28;19930;-91
2022/08/08 13:27:52;;;;;;;;;;;30.40;62.80;;;;;;4967046;28;20112;-91
2022/08/08 13:30:27;;;;;;;;;;;30.60;62.40;;;;;;4972847;28;19926;-92
2022/08/08 13:32:56;;;;;;;;;;;30.80;62.30;;;;;;4987866;28;19926;-91
2022/08/08 13:35:24;;;;;;;;;;;30.90;62.20;;;;;;4969402;28;19956;-92
2022/08/08 13:38:05;;;;;;;;;;;30.80;61.80;;;;;;4969452;28;19926;-91
2022/08/08 13:40:43;;;;;;;;;;;30.60;61.90;;;;;;4949233;29;19930;-91
2022/08/08 13:43:13;;;;;;;;;;;30.30;61.40;;;;;;4961676;28;19937;-93
2022/08/08 13:45:42;;;;;;;;;;;29.90;61.70;;;;;;4957430;28;19946;-91
2022/08/08 13:48:14;;;;;;;;;;;29.90;62.70;;;;;;4965772;28;19927;-92
2022/08/08 13:50:44;;;;;;;;;;;30.10;62.20;;;;;;4967729;28;19945;-91
2022/08/08 13:53:26;;;;;;;;;;;30.50;61.90;;;;;;4950853;28;20013;-93
2022/08/08 13:56:00;;;;;;;;;;;30.90;60.80;;;;;;4976778;28;19931;-92
2022/08/08 13:58:28;;;;;;;;;;;31.20;60.50;;;;;;4946126;29;19937;-93
2022/08/08 14:00:57;;;;;;;;;;;31.40;60.50;;;;;;4957853;29;19933;-93
2022/08/08 14:03:28;;;;;;;;;;;31.80;59.40;;;;;;4964381;29;19930;-93
2022/08/08 14:06:16;;;;;;;;;;;31.90;58.80;;;;;;4945913;29;19937;-92
2022/08/08 14:09:00;;;;;;;;;;;32.20;60.30;;;;;;4950219;29;20098;-93
2022/08/08 14:11:47;;;;;;;;;;;32.50;60.20;;;;;;4954118;29;19941;-93
2022/08/08 14:14:15;;;;;;;;;;;32.60;59.90;;;;;;4953631;28;19925;-93
2022/08/08 14:16:53;;;;;;;;;;;32.70;60.70;;;;;;4956588;28;19926;-93
2022/08/08 14:19:31;;;;;;;;;;;32.90;60.00;;;;;;4944829;28;19946;-93
2022/08/08 14:22:23;;;;;;;;;;;33.10;59.30;;;;;;4963058;28;19933;-93
2022/08/08 14:24:59;;;;;;;;;;;33.50;59.30;;;;;;4960518;28;20353;-92
2022/08/08 14:27:31;;;;;;;;;;;33.90;59.00;;;;;;4981472;28;19926;-93
2022/08/08 14:30:08;;;;;;;;;;;34.20;58.60;;;;;;4963957;28;19926;-93
2022/08/08 14:32:45;;;;;;;;;;;34.60;57.90;;;;;;4965346;28;19930;-91
2022/08/08 14:35:20;;;;;;;;;;;34.90;57.90;;;;;;4995737;28;19930;-93
2022/08/08 14:37:49;;;;;;;;;;;34.80;57.60;;;;;;4978275;28;19949;-93
2022/08/08 14:40:30;;;;;;;;;;;34.60;57.70;;;;;;4961185;28;19930;-93
2022/08/08 14:42:58;;;;;;;;;;;34.30;57.70;;;;;;4982168;28;20530;-92
2022/08/08 14:45:28;;;;;;;;;;;33.70;58.50;;;;;;4982406;28;19942;-91
2022/08/08 14:48:16;;;;;;;;;;;32.90;58.90;;;;;;4961130;28;20309;-91
2022/08/08 14:51:05;;;;;;;;;;;32.20;60.00;;;;;;4962486;28;19925;-91
2022/08/08 14:53:35;;;;;;;;;;;31.70;60.90;;;;;;4976976;28;19937;-92
2022/08/08 14:56:04;;;;;;;;;;;31.70;60.80;;;;;;4976241;28;19926;-92
2022/08/08 14:58:31;;;;;;;;;;;32.20;60.70;;;;;;4959818;28;20311;-91
2022/08/08 15:01:00;;;;;;;;;;;32.70;60.20;;;;;;4960890;28;19937;-92
2022/08/08 15:03:35;;;;;;;;;;;32.90;59.70;;;;;;4975815;28;20625;-92
2022/08/08 15:06:19;;;;;;;;;;;33.20;59.60;;;;;;4958745;28;19937;-93
2022/08/08 15:08:49;;;;;;;;;;;33.40;59.30;;;;;;4960440;28;19926;-92
2022/08/08 15:11:22;;;;;;;;;;;33.60;59.00;;;;;;4945754;29;20378;-92
2022/08/08 15:13:51;;;;;;;;;;;33.80;58.70;;;;;;4959501;29;19926;-92
2022/08/08 15:16:31;;;;;;;;;;;34.10;58.40;;;;;;4941117;29;19930;-92
2022/08/08 15:19:02;;;;;;;;;;;34.30;58.10;;;;;;4956691;29;20301;-93
2022/08/08 15:21:29;;;;;;;;;;;34.40;58.50;;;;;;4958636;29;19930;-93
2022/08/08 15:23:59;;;;;;;;;;;34.50;58.30;;;;;;4946261;29;19933;-92
2022/08/08 15:26:31;;;;;;;;;;;34.70;58.00;;;;;;4982525;28;19926;-93
2022/08/08 15:28:59;;;;;;;;;;;34.90;57.10;;;;;;4985584;28;19933;-93
2022/08/08 15:31:28;;;;;;;;;;;34.90;57.20;;;;;;4983125;28;19940;-92
2022/08/08 15:34:18;;;;;;;;;;;35.00;57.90;;;;;;4999888;28;19933;-93
2022/08/08 15:36:59;;;;;;;;;;;35.30;57.20;;;;;;4985063;28;20266;-93
2022/08/08 15:39:31;;;;;;;;;;;35.20;56.90;;;;;;4965568;28;19926;-93
2022/08/08 15:42:06;;;;;;;;;;;35.10;56.90;;;;;;4968086;28;19933;-93
2022/08/08 15:44:57;;;;;;;;;;;35.00;57.10;;;;;;4958658;29;19933;-93